Time;durP1;ratioP1;P1;durP2;ratioP2;P2;SDS_P1;SDS_P2;PMS_P1;PMS_P2;Temp;Humidity;BMP_temperature;BMP_pressure;BME280_temperature;BME280_humidity;BME280_pressure;Samples;Min_cycle;Max_cycle;Signal;HPM_P1;HPM_P2
2021/11/12 00:13:51;;;;;;;28.73;20.35;;;11.90;88.10;;;;;;5010815;28;20042;-75
2021/11/12 00:16:18;;;;;;;27.20;17.90;;;11.90;89.80;;;;;;5044439;28;20098;-75
2021/11/12 00:18:44;;;;;;;25.90;17.88;;;11.90;90.50;;;;;;5051680;28;20059;-75
2021/11/12 00:21:10;;;;;;;25.48;17.23;;;11.90;91.50;;;;;;5053031;28;20381;-74
2021/11/12 00:23:39;;;;;;;24.60;17.08;;;11.90;91.50;;;;;;5053079;28;20465;-74
2021/11/12 00:26:05;;;;;;;21.00;17.02;;;11.80;94.40;;;;;;5052765;28;20035;-74
2021/11/12 00:28:37;;;;;;;25.45;16.42;;;11.90;92.90;;;;;;5052916;28;20021;-75
2021/11/12 00:38:36;;;;;;;24.42;17.33;;;11.80;82.40;;;;;;5052643;28;20086;-75
2021/11/12 00:43:53;;;;;;;29.75;17.85;;;11.80;82.80;;;;;;5053074;28;20484;-75
2021/11/12 00:46:34;;;;;;;31.88;18.90;;;11.90;82.60;;;;;;5052881;28;20162;-74
2021/11/12 00:49:04;;;;;;;28.15;17.55;;;11.70;82.10;;;;;;5052644;28;20410;-74
2021/11/12 00:51:41;;;;;;;24.38;17.63;;;11.70;82.80;;;;;;5052825;28;20033;-74
2021/11/12 00:54:07;;;;;;;25.13;18.20;;;11.70;82.00;;;;;;5052372;28;20482;-74
2021/11/12 00:56:34;;;;;;;26.23;18.00;;;11.80;89.20;;;;;;5052633;28;20025;-74
2021/11/12 00:59:03;;;;;;;25.30;17.48;;;11.80;90.40;;;;;;5052627;28;20032;-74
2021/11/12 01:01:30;;;;;;;25.40;17.55;;;;;;;;;;5052622;28;20068;-74
2021/11/12 01:03:57;;;;;;;25.67;18.55;;;11.80;87.00;;;;;;5052541;28;20079;-74
2021/11/12 01:06:23;;;;;;;25.17;18.30;;;11.70;87.10;;;;;;5052646;28;20025;-75
2021/11/12 01:08:49;;;;;;;27.05;19.38;;;11.70;85.10;;;;;;5052395;28;20524;-74
2021/11/12 01:11:17;;;;;;;26.75;19.65;;;11.70;90.50;;;;;;5051030;28;20504;-75
2021/11/12 01:13:45;;;;;;;26.08;19.55;;;11.70;90.40;;;;;;5055453;28;20158;-74
2021/11/12 01:16:12;;;;;;;26.27;18.83;;;11.70;93.30;;;;;;5056259;28;20029;-74
2021/11/12 01:18:38;;;;;;;28.83;18.02;;;11.70;89.10;;;;;;5055817;28;20122;-75
2021/11/12 01:21:07;;;;;;;24.52;19.00;;;11.70;90.60;;;;;;5056103;28;20028;-75
2021/11/12 01:23:34;;;;;;;25.75;17.95;;;11.60;94.20;;;;;;5056211;28;20040;-74
2021/11/12 01:26:00;;;;;;;25.48;17.48;;;11.60;93.30;;;;;;5056121;28;20021;-74
2021/11/12 01:28:26;;;;;;;26.83;19.35;;;;;;;;;;5056068;28;20037;-74
2021/11/12 01:30:53;;;;;;;24.65;17.58;;;11.50;81.50;;;;;;5056020;28;20071;-75
2021/11/12 01:33:19;;;;;;;24.50;17.73;;;11.50;82.40;;;;;;5056095;28;20041;-74
2021/11/12 01:35:45;;;;;;;25.00;18.15;;;11.50;81.80;;;;;;5055664;28;20028;-74
2021/11/12 01:38:11;;;;;;;24.88;17.73;;;;;;;;;;5055852;28;20033;-74
2021/11/12 01:40:36;;;;;;;25.00;17.63;;;11.40;81.20;;;;;;5055994;28;20036;-74
2021/11/12 01:43:17;;;;;;;29.55;18.48;;;11.40;81.70;;;;;;5055948;28;20033;-74
2021/11/12 01:48:38;;;;;;;25.60;18.13;;;11.40;82.20;;;;;;5055542;28;20033;-75
2021/11/12 01:53:39;;;;;;;23.27;16.77;;;11.30;81.70;;;;;;5055634;28;20101;-74
2021/11/12 01:59:20;;;;;;;23.92;17.95;;;11.30;81.50;;;;;;5052660;28;20512;-75
2021/11/12 02:01:22;;;;;;;25.35;17.45;;;11.30;82.00;;;;;;5044961;28;20037;-75
2021/11/12 02:03:49;;;;;;;21.23;15.82;;;11.30;82.20;;;;;;5052290;28;20047;-75
2021/11/12 02:06:18;;;;;;;22.70;16.23;;;11.30;82.30;;;;;;5054831;28;20017;-74
2021/11/12 02:08:45;;;;;;;21.38;16.13;;;11.30;82.30;;;;;;5054825;28;20028;-74
2021/11/12 02:11:11;;;;;;;19.88;16.23;;;;;;;;;;5054968;28;20566;-75
2021/11/12 02:13:37;;;;;;;23.33;16.00;;;11.30;85.90;;;;;;5054780;28;20059;-75
2021/11/12 02:16:06;;;;;;;23.88;16.40;;;11.40;90.20;;;;;;5055036;28;20040;-75
2021/11/12 02:18:37;;;;;;;22.85;15.65;;;11.30;82.10;;;;;;5053568;28;20056;-75
2021/11/12 02:23:55;;;;;;;21.33;15.93;;;11.20;82.00;;;;;;5054988;28;20032;-74
2021/11/12 02:26:26;;;;;;;23.77;15.77;;;11.20;82.00;;;;;;5054853;28;20017;-74
2021/11/12 02:28:57;;;;;;;21.98;16.27;;;11.20;82.00;;;;;;5054477;28;20316;-75
2021/11/12 02:31:25;;;;;;;21.60;15.75;;;11.20;81.80;;;;;;5054689;28;20052;-74
2021/11/12 02:33:52;;;;;;;27.10;17.35;;;11.20;81.90;;;;;;5054595;28;20052;-74
2021/11/12 02:36:19;;;;;;;21.92;16.95;;;11.20;81.80;;;;;;5054105;28;20025;-74
2021/11/12 02:38:53;;;;;;;25.58;19.05;;;11.10;82.50;;;;;;5054501;28;20107;-75
2021/11/12 02:41:20;;;;;;;25.50;18.08;;;11.10;82.00;;;;;;5054429;28;20104;-74
2021/11/12 02:43:48;;;;;;;25.58;18.48;;;11.10;82.20;;;;;;5054147;28;20544;-74
2021/11/12 02:46:17;;;;;;;21.75;16.90;;;11.10;82.30;;;;;;5054516;28;20048;-75
2021/11/12 02:48:43;;;;;;;23.85;17.83;;;11.10;82.20;;;;;;5054289;28;20039;-75
2021/11/12 02:51:12;;;;;;;24.13;17.10;;;11.00;82.10;;;;;;5053950;28;20449;-74
2021/11/12 02:53:39;;;;;;;21.35;17.58;;;11.00;82.00;;;;;;5054070;28;20025;-75
2021/11/12 02:56:14;;;;;;;20.65;15.52;;;11.00;82.20;;;;;;5054328;28;20032;-74
2021/11/12 02:58:41;;;;;;;21.45;16.90;;;11.00;82.30;;;;;;5053950;28;20036;-74
2021/11/12 03:01:09;;;;;;;26.80;17.88;;;11.10;86.20;;;;;;5053850;28;20032;-74
2021/11/12 03:03:36;;;;;;;22.58;16.25;;;11.10;95.30;;;;;;5053918;28;20096;-74
2021/11/12 03:06:02;;;;;;;26.02;15.80;;;11.10;90.70;;;;;;5054107;28;20024;-74
2021/11/12 03:08:28;;;;;;;22.55;16.25;;;11.00;82.60;;;;;;5054229;28;20024;-74
2021/11/12 03:10:58;;;;;;;22.77;15.57;;;11.00;82.50;;;;;;5054271;28;20151;-74
2021/11/12 03:13:25;;;;;;;21.88;15.98;;;11.00;82.40;;;;;;5052924;28;20040;-74
2021/11/12 03:15:51;;;;;;;23.40;15.98;;;11.00;81.80;;;;;;5053590;28;20426;-74
2021/11/12 03:18:18;;;;;;;21.30;15.73;;;10.90;81.70;;;;;;5053826;28;20044;-74
2021/11/12 03:20:44;;;;;;;26.38;15.88;;;10.90;81.40;;;;;;5053805;28;20465;-74
2021/11/12 03:23:21;;;;;;;20.70;15.35;;;10.90;81.40;;;;;;5053674;28;20055;-74
2021/11/12 04:01:38;;;;;;;19.98;13.95;;;10.70;83.40;;;;;;4992053;28;20038;-75
2021/11/12 04:07:05;;;;;;;18.75;14.02;;;10.70;82.80;;;;;;5036421;28;20040;-74
2021/11/12 04:17:59;;;;;;;25.05;15.65;;;10.70;82.70;;;;;;5053081;28;20166;-74
2021/11/12 04:39:45;;;;;;;22.52;15.27;;;10.70;82.90;;;;;;5053176;28;20083;-74
2021/11/12 05:44:26;;;;;;;21.10;13.10;;;10.60;83.20;;;;;;5055761;28;20051;-75
2021/11/12 05:49:42;;;;;;;21.40;12.55;;;10.60;83.10;;;;;;5055621;28;20029;-74
2021/11/12 05:50:44;;;;;;;23.80;12.80;;;10.60;83.00;;;;;;5055359;28;20032;-74
2021/11/12 05:55:16;;;;;;;16.35;12.13;;;10.50;83.10;;;;;;5055228;28;20528;-74
2021/11/12 05:57:41;;;;;;;20.30;13.48;;;10.60;83.20;;;;;;5054833;28;20017;-74
2021/11/12 06:00:14;;;;;;;21.27;14.10;;;10.50;83.10;;;;;;5055576;28;20025;-75
2021/11/12 06:02:40;;;;;;;20.67;12.40;;;10.50;82.80;;;;;;5055196;28;20025;-74
2021/11/12 06:05:07;;;;;;;18.65;12.65;;;10.50;82.60;;;;;;5055291;28;20021;-74
2021/11/12 06:07:33;;;;;;;17.83;12.27;;;10.50;82.40;;;;;;5055317;28;20029;-74
2021/11/12 06:09:59;;;;;;;25.25;13.25;;;10.50;82.20;;;;;;5055310;28;20025;-74
2021/11/12 06:12:27;;;;;;;22.17;13.98;;;10.40;82.10;;;;;;5055256;28;20021;-74
2021/11/12 06:14:53;;;;;;;22.88;14.27;;;10.40;83.00;;;;;;5054834;28;20075;-74
2021/11/12 06:17:19;;;;;;;21.08;13.75;;;10.40;82.60;;;;;;5055040;28;20108;-74
2021/11/12 06:19:44;;;;;;;20.33;13.23;;;10.30;82.60;;;;;;5053319;28;20136;-75
2021/11/12 06:22:10;;;;;;;28.67;14.00;;;10.40;82.60;;;;;;5053552;28;20031;-74
2021/11/12 06:24:37;;;;;;;25.48;12.32;;;10.40;82.60;;;;;;5054784;28;20028;-75
2021/11/12 06:27:03;;;;;;;19.92;12.43;;;10.40;82.50;;;;;;5055025;28;20021;-75
2021/11/12 06:29:29;;;;;;;19.92;13.90;;;10.30;82.20;;;;;;5054586;28;20056;-75
2021/11/12 06:31:55;;;;;;;21.85;12.80;;;10.40;82.40;;;;;;5054667;28;20028;-74
2021/11/12 06:34:21;;;;;;;19.70;11.60;;;10.40;82.20;;;;;;5054733;28;20037;-74
2021/11/12 06:36:47;;;;;;;20.40;12.25;;;10.40;82.10;;;;;;5053380;28;20021;-74
2021/11/12 06:39:14;;;;;;;19.25;13.50;;;10.30;81.60;;;;;;5054595;28;20036;-74
2021/11/12 06:49:49;;;;;;;19.10;14.00;;;10.30;81.80;;;;;;5054961;28;20036;-75
2021/11/12 06:52:16;;;;;;;20.30;13.23;;;10.30;82.10;;;;;;5054150;28;20052;-74
2021/11/12 06:54:44;;;;;;;17.67;13.35;;;10.20;82.30;;;;;;5053760;28;20119;-75
2021/11/12 06:57:10;;;;;;;22.77;14.68;;;10.20;82.60;;;;;;5054430;28;20454;-75
2021/11/12 06:59:35;;;;;;;18.23;13.82;;;10.20;82.80;;;;;;5054309;28;20079;-75
2021/11/12 07:02:01;;;;;;;20.02;13.15;;;10.20;83.00;;;;;;5054227;28;20111;-75
2021/11/12 07:04:27;;;;;;;19.85;14.02;;;10.30;83.20;;;;;;5054247;28;20021;-75
2021/11/12 07:06:52;;;;;;;18.52;14.07;;;10.30;83.90;;;;;;5053746;28;20035;-76
2021/11/12 07:09:19;;;;;;;22.23;13.85;;;10.30;83.90;;;;;;5053190;28;20025;-75
2021/11/12 07:11:45;;;;;;;20.95;13.95;;;10.40;84.30;;;;;;5050535;28;20021;-75
2021/11/12 07:14:10;;;;;;;29.60;13.70;;;10.50;84.30;;;;;;5052842;28;20048;-75
2021/11/12 07:16:36;;;;;;;21.35;13.52;;;10.50;84.40;;;;;;5052757;28;20048;-75
2021/11/12 07:19:02;;;;;;;16.58;12.10;;;10.60;84.30;;;;;;5052215;28;20052;-75
2021/11/12 07:21:28;;;;;;;22.98;13.55;;;10.70;84.20;;;;;;5052301;28;20028;-75
2021/11/12 07:23:55;;;;;;;22.75;13.68;;;10.90;93.10;;;;;;5052324;28;20078;-75
2021/11/12 07:26:21;;;;;;;17.33;13.00;;;10.90;92.20;;;;;;5053147;28;20494;-75
2021/11/12 07:28:48;;;;;;;23.42;13.88;;;10.90;84.30;;;;;;5053046;28;20021;-75
2021/11/12 07:31:16;;;;;;;28.23;14.93;;;;;;;;;;5048097;28;20031;-77
2021/11/12 07:33:43;;;;;;;24.23;15.63;;;11.00;83.50;;;;;;5050209;28;20037;-72
2021/11/12 07:49:19;;;;;;;15.98;10.57;;;11.40;82.20;;;;;;5051865;28;20064;-72
2021/11/12 07:51:45;;;;;;;18.42;10.27;;;;;;;;;;5050620;28;20434;-72
2021/11/12 07:54:11;;;;;;;14.90;10.23;;;11.60;81.20;;;;;;5050797;28;20078;-74
2021/11/12 07:56:37;;;;;;;15.15;9.63;;;11.70;81.40;;;;;;5050313;28;20036;-72
2021/11/12 07:59:03;;;;;;;16.58;9.45;;;11.70;81.30;;;;;;5050971;28;20021;-73
2021/11/12 08:01:28;;;;;;;14.70;9.05;;;11.80;81.20;;;;;;5052996;28;20033;-71
2021/11/12 08:03:56;;;;;;;17.85;8.88;;;11.80;80.60;;;;;;5052749;28;20035;-72
2021/11/12 08:06:25;;;;;;;18.05;9.25;;;11.90;80.30;;;;;;5052057;28;20025;-72
2021/11/12 08:08:58;;;;;;;21.40;9.43;;;12.00;80.00;;;;;;5055692;28;20048;-73
2021/11/12 08:11:32;;;;;;;16.73;11.02;;;12.10;79.80;;;;;;5058475;28;20021;-72
2021/11/12 08:16:52;;;;;;;29.42;14.55;;;12.20;80.10;;;;;;5057955;28;20121;-72
2021/11/12 08:30:33;;;;;;;15.07;10.52;;;12.50;80.00;;;;;;5051820;28;20033;-72
2021/11/12 08:42:33;;;;;;;16.33;9.85;;;12.40;79.80;;;;;;5058819;28;20051;-71
2021/11/12 08:47:37;;;;;;;20.40;11.87;;;12.50;79.50;;;;;;5072264;28;20025;-73
2021/11/12 08:50:05;;;;;;;;;;;12.50;79.30;;;;;;5072517;28;20029;-72
2021/11/12 08:52:31;;;;;;;12.57;10.18;;;12.50;79.50;;;;;;5072435;28;20264;-72
2021/11/12 08:55:02;;;;;;;15.65;10.85;;;12.50;79.50;;;;;;5072033;28;20037;-72
2021/11/12 08:57:27;;;;;;;15.40;10.75;;;12.50;79.90;;;;;;5071908;28;20043;-72
2021/11/12 08:59:53;;;;;;;14.98;9.50;;;12.50;79.90;;;;;;5072008;28;20488;-72
2021/11/12 09:02:24;;;;;;;17.42;9.70;;;12.60;80.10;;;;;;5071679;28;20021;-72
2021/11/12 09:04:50;;;;;;;15.48;9.20;;;12.60;80.10;;;;;;5072090;28;20024;-72
2021/11/12 09:07:17;;;;;;;18.33;10.27;;;12.70;80.50;;;;;;5072160;28;20377;-72
2021/11/12 09:09:44;;;;;;;15.85;9.55;;;12.70;80.20;;;;;;5071744;28;20063;-72
2021/11/12 09:12:12;;;;;;;19.08;10.25;;;12.80;80.00;;;;;;5072022;28;20103;-72
2021/11/12 09:14:43;;;;;;;13.40;9.45;;;12.80;79.90;;;;;;5071333;28;20035;-72
2021/11/12 09:17:10;;;;;;;17.33;10.35;;;12.80;79.60;;;;;;5070507;28;20390;-72
2021/11/12 09:19:45;;;;;;;37.80;10.15;;;12.90;79.60;;;;;;5064055;28;20055;-72
2021/11/12 09:22:13;;;;;;;18.10;9.32;;;12.90;79.60;;;;;;5058706;28;20068;-71
2021/11/12 09:24:39;;;;;;;12.32;9.30;;;12.90;79.40;;;;;;5062170;28;20023;-72
2021/11/12 09:27:05;;;;;;;11.77;8.88;;;13.00;79.30;;;;;;5055340;28;20021;-72
2021/11/12 09:29:30;;;;;;;13.77;9.25;;;13.00;79.30;;;;;;5051212;28;20111;-72
2021/11/12 09:31:58;;;;;;;17.83;8.60;;;13.00;79.60;;;;;;5069186;28;20540;-73
2021/11/12 09:34:24;;;;;;;10.77;7.72;;;13.00;79.50;;;;;;5037886;28;20045;-73
2021/11/12 09:36:49;;;;;;;15.38;7.53;;;13.10;79.20;;;;;;5053932;28;20029;-71
2021/11/12 09:39:15;;;;;;;11.63;6.40;;;13.20;78.50;;;;;;5054735;28;20037;-72
2021/11/12 09:41:43;;;;;;;13.40;7.15;;;13.30;77.80;;;;;;5054811;28;20493;-72
2021/11/12 09:44:10;;;;;;;10.85;6.68;;;13.40;77.40;;;;;;5054934;28;20075;-73
2021/11/12 09:46:35;;;;;;;9.55;6.43;;;13.50;76.90;;;;;;5055155;28;20029;-73
2021/11/12 09:49:03;;;;;;;12.88;6.90;;;13.60;76.60;;;;;;5055076;28;20103;-73
2021/11/12 09:51:30;;;;;;;13.65;7.03;;;13.70;76.30;;;;;;5055268;28;20029;-72
2021/11/12 09:53:56;;;;;;;10.02;6.68;;;13.80;76.30;;;;;;5055312;28;20048;-72
2021/11/12 09:56:21;;;;;;;10.85;6.50;;;13.90;75.90;;;;;;5054124;28;20033;-72
2021/11/12 09:58:51;;;;;;;13.10;7.10;;;14.00;75.70;;;;;;5055205;28;20061;-72
2021/11/12 10:01:25;;;;;;;11.02;6.70;;;14.10;75.80;;;;;;5055217;28;20032;-72
2021/11/12 10:03:51;;;;;;;14.45;7.68;;;14.20;76.00;;;;;;5055130;28;20016;-73
2021/11/12 10:06:19;;;;;;;13.70;6.40;;;14.30;75.70;;;;;;5055304;28;20544;-73
2021/11/12 10:08:46;;;;;;;11.30;5.82;;;14.40;75.80;;;;;;5055239;28;20112;-72
2021/11/12 10:11:24;;;;;;;14.18;5.38;;;14.40;75.80;;;;;;5054594;28;20036;-72
2021/11/12 10:13:59;;;;;;;16.83;6.85;;;14.50;75.80;;;;;;5053896;28;20040;-72
2021/11/12 10:16:35;;;;;;;14.45;6.60;;;14.60;75.70;;;;;;5054523;28;20478;-72
2021/11/12 10:19:13;;;;;;;11.88;5.90;;;14.60;75.50;;;;;;5054670;28;20041;-73
2021/11/12 10:21:40;;;;;;;8.68;6.03;;;14.70;75.50;;;;;;5055182;28;20017;-72
2021/11/12 10:24:11;;;;;;;10.93;6.18;;;14.70;75.40;;;;;;5053783;28;20095;-73
2021/11/12 10:26:37;;;;;;;11.93;6.60;;;14.80;75.30;;;;;;5054674;28;20013;-73
2021/11/12 10:29:09;;;;;;;10.25;6.40;;;14.80;75.10;;;;;;5054711;28;20104;-72
2021/11/12 10:31:42;;;;;;;13.40;6.72;;;14.90;74.90;;;;;;5055331;28;20035;-72
2021/11/12 10:34:37;;;;;;;10.18;6.80;;;14.90;74.80;;;;;;5054981;28;20485;-73
2021/11/12 10:37:07;;;;;;;13.20;6.60;;;15.00;74.60;;;;;;5042083;28;20041;-72
2021/11/12 10:39:33;;;;;;;13.05;7.30;;;15.00;74.50;;;;;;5054310;28;20374;-73
2021/11/12 10:42:05;;;;;;;12.30;6.63;;;15.10;74.50;;;;;;5054697;28;20032;-72
2021/11/12 10:44:33;;;;;;;;;;;15.10;74.50;;;;;;5054851;28;20025;-72
2021/11/12 10:47:04;;;;;;;10.40;6.85;;;15.20;74.30;;;;;;5054675;28;19908;-73
2021/11/12 10:49:32;;;;;;;12.32;6.35;;;15.30;74.50;;;;;;5054349;28;20029;-73
2021/11/12 10:52:14;;;;;;;15.00;6.40;;;15.30;74.30;;;;;;5054376;28;20444;-73
2021/11/12 10:57:16;;;;;;;11.55;6.35;;;15.40;73.90;;;;;;5054619;28;20048;-72
2021/11/12 11:00:07;;;;;;;17.15;7.30;;;15.40;73.80;;;;;;5054385;28;20103;-73
2021/11/12 11:02:37;;;;;;;15.95;7.22;;;15.30;74.20;;;;;;5054237;28;20373;-73
2021/11/12 11:05:07;;;;;;;15.95;7.00;;;15.30;74.00;;;;;;5054633;28;20020;-72
2021/11/12 11:07:34;;;;;;;15.30;7.72;;;15.30;74.40;;;;;;5054493;28;20045;-72
2021/11/12 11:10:02;;;;;;;11.65;6.28;;;15.30;75.10;;;;;;5054326;28;20500;-73
2021/11/12 11:12:35;;;;;;;13.23;7.40;;;15.30;75.50;;;;;;5054168;28;20024;-73
2021/11/12 11:15:32;;;;;;;14.00;7.65;;;15.30;75.70;;;;;;5053749;28;20485;-73
2021/11/12 11:18:30;;;;;;;11.77;6.90;;;15.20;75.80;;;;;;5041644;28;20071;-73
2021/11/12 11:23:48;;;;;;;12.27;7.60;;;15.20;75.70;;;;;;5053983;28;20025;-73
2021/11/12 11:26:17;;;;;;;18.65;8.27;;;15.30;75.70;;;;;;5052537;28;20108;-73
2021/11/12 11:28:44;;;;;;;13.25;8.05;;;15.40;75.50;;;;;;5053641;28;20021;-73
2021/11/12 11:31:13;;;;;;;15.75;8.88;;;15.40;74.80;;;;;;5053833;28;20020;-73
2021/11/12 11:33:41;;;;;;;18.48;9.60;;;15.50;75.00;;;;;;5053701;28;20053;-72
2021/11/12 11:36:09;;;;;;;19.75;9.57;;;15.50;74.60;;;;;;5053397;28;20520;-72
2021/11/12 11:38:39;;;;;;;12.48;8.20;;;15.50;74.50;;;;;;5053502;28;20389;-73
2021/11/12 11:41:08;;;;;;;14.68;7.63;;;15.50;74.60;;;;;;5053413;28;20424;-74
2021/11/12 11:43:34;;;;;;;11.38;6.60;;;15.50;74.70;;;;;;5053787;28;20035;-75
2021/11/12 11:46:03;;;;;;;10.55;6.10;;;15.60;74.60;;;;;;5052190;28;20021;-75
2021/11/12 11:48:33;;;;;;;12.35;7.40;;;15.60;74.20;;;;;;5053366;28;20041;-75
2021/11/12 11:51:00;;;;;;;14.68;7.65;;;15.70;72.80;;;;;;5053189;28;20028;-75
2021/11/12 11:53:37;;;;;;;12.48;6.65;;;15.70;72.60;;;;;;5053305;28;20013;-75
2021/11/12 11:56:34;;;;;;;8.38;6.20;;;15.70;71.40;;;;;;5052874;28;20091;-75
2021/11/12 11:59:01;;;;;;;12.15;6.10;;;15.80;71.40;;;;;;5037926;28;20481;-73
2021/11/12 12:01:33;;;;;;;10.80;6.18;;;15.80;71.10;;;;;;5048842;28;20127;-72
2021/11/12 12:04:14;;;;;;;8.60;5.90;;;15.80;71.00;;;;;;5051996;28;20060;-73
2021/11/12 12:07:01;;;;;;;12.18;6.40;;;15.90;71.40;;;;;;5052978;28;20025;-72
2021/11/12 12:09:58;;;;;;;13.85;6.63;;;15.90;71.40;;;;;;5053003;28;20104;-73
2021/11/12 12:12:30;;;;;;;10.02;6.80;;;15.80;71.70;;;;;;5053087;28;20553;-73
2021/11/12 12:15:05;;;;;;;9.93;6.20;;;15.80;71.90;;;;;;5053075;28;20044;-73
2021/11/12 12:17:47;;;;;;;11.60;6.72;;;15.90;72.00;;;;;;5052682;28;20033;-73
2021/11/12 13:22:46;;;;;;;15.07;7.25;;;15.90;72.40;;;;;;5033914;28;20491;-72
2021/11/12 13:25:23;;;;;;;15.27;6.85;;;15.90;72.30;;;;;;5033346;28;20060;-72
2021/11/12 13:27:50;;;;;;;11.40;6.55;;;15.90;72.80;;;;;;5033852;28;20470;-72
2021/11/12 13:30:27;;;;;;;14.60;7.10;;;15.80;72.70;;;;;;5035748;28;20037;-73
2021/11/12 13:32:52;;;;;;;11.23;6.88;;;15.80;72.60;;;;;;5036240;28;20018;-72
2021/11/12 13:35:36;;;;;;;11.80;6.93;;;15.80;72.60;;;;;;5036037;28;20090;-73
2021/11/12 13:38:04;;;;;;;14.98;7.72;;;15.80;73.00;;;;;;5035738;28;20030;-72
2021/11/12 13:40:34;;;;;;;15.18;7.70;;;15.80;73.20;;;;;;5035451;28;20092;-72
2021/11/12 13:43:00;;;;;;;10.40;6.47;;;15.80;73.30;;;;;;5035488;28;20040;-72
2021/11/12 13:45:28;;;;;;;14.60;7.00;;;15.80;73.70;;;;;;5035465;28;20037;-72
2021/11/12 13:48:11;;;;;;;10.70;7.60;;;15.80;72.80;;;;;;5035372;28;20022;-73
2021/11/12 13:50:42;;;;;;;13.05;7.57;;;15.90;72.90;;;;;;5035528;28;20170;-72
2021/11/12 13:53:09;;;;;;;20.15;7.90;;;15.90;73.30;;;;;;5035289;28;20033;-73
2021/11/12 13:55:37;;;;;;;16.45;8.32;;;15.90;73.20;;;;;;5035532;28;20041;-73
2021/11/12 13:58:05;;;;;;;12.27;7.55;;;15.90;73.20;;;;;;5033488;28;20033;-75
2021/11/12 14:00:33;;;;;;;15.10;8.00;;;16.00;73.40;;;;;;5032662;28;20037;-75
2021/11/12 14:03:11;;;;;;;13.98;7.97;;;15.90;73.80;;;;;;5033819;28;20021;-75
2021/11/12 14:05:51;;;;;;;16.92;8.75;;;15.90;74.20;;;;;;5035386;28;20030;-75
2021/11/12 14:08:17;;;;;;;11.98;7.70;;;15.90;74.50;;;;;;5035288;28;20099;-73
2021/11/12 14:10:48;;;;;;;15.20;7.97;;;15.80;74.70;;;;;;5035289;28;20478;-75
2021/11/12 14:13:17;;;;;;;18.40;7.15;;;15.80;75.00;;;;;;5035311;28;20095;-72
2021/11/12 14:22:04;;;;;;;17.58;7.88;;;15.70;75.00;;;;;;5025394;28;20033;-72
2021/11/12 14:35:57;;;;;;;18.35;9.50;;;15.70;74.70;;;;;;5034508;28;20148;-72
2021/11/12 14:38:12;;;;;;;18.45;10.43;;;15.70;74.70;;;;;;5031482;28;20030;-72
2021/11/12 14:43:30;;;;;;;17.65;10.45;;;15.70;74.80;;;;;;5034307;28;20029;-71
2021/11/12 14:51:22;;;;;;;19.73;11.05;;;15.60;75.10;;;;;;5034500;28;20033;-71
2021/11/12 14:56:24;;;;;;;14.05;10.27;;;15.60;75.20;;;;;;5034021;28;20033;-71
2021/11/12 14:58:57;;;;;;;19.63;10.63;;;15.60;75.30;;;;;;5033938;28;20067;-71
2021/11/12 15:01:27;;;;;;;16.65;10.77;;;15.50;75.40;;;;;;5034035;28;20021;-72
2021/11/12 15:03:53;;;;;;;18.67;11.40;;;15.50;75.50;;;;;;5034011;28;20492;-72
2021/11/12 15:06:23;;;;;;;17.48;11.15;;;15.50;75.90;;;;;;5034017;28;20371;-71
2021/11/12 15:11:25;;;;;;;27.55;12.63;;;15.40;76.40;;;;;;5033988;28;20029;-71
2021/11/12 15:13:53;;;;;;;16.35;10.40;;;15.40;76.90;;;;;;5033974;28;20029;-72
2021/11/12 15:16:24;;;;;;;23.48;12.65;;;15.40;77.90;;;;;;5033639;28;20022;-72
2021/11/12 15:18:55;;;;;;;16.25;12.05;;;15.30;78.20;;;;;;5033212;28;20084;-71
2021/11/12 15:21:32;;;;;;;20.02;13.52;;;15.30;78.60;;;;;;5033821;28;20018;-72
2021/11/12 15:24:07;;;;;;;22.50;15.13;;;15.20;79.40;;;;;;5033914;28;20121;-71
2021/11/12 15:34:13;;;;;;;30.55;17.23;;;15.10;80.90;;;;;;5033939;28;20064;-71
2021/11/12 15:36:55;;;;;;;22.92;16.17;;;15.00;80.90;;;;;;5033806;28;20370;-71
2021/11/12 15:39:32;;;;;;;25.47;17.50;;;15.00;81.10;;;;;;5033600;28;20017;-71
2021/11/12 15:44:37;;;;;;;24.90;18.58;;;15.00;80.60;;;;;;5033268;28;20030;-71
2021/11/12 15:49:33;;;;;;;27.08;18.45;;;15.00;80.50;;;;;;5033001;28;20025;-71
2021/11/12 15:52:07;;;;;;;28.25;18.98;;;14.90;80.40;;;;;;5031880;28;20025;-71
2021/11/12 16:15:12;;;;;;;28.55;20.27;;;14.60;81.90;;;;;;5033020;28;20048;-72
2021/11/12 16:17:43;;;;;;;28.05;19.23;;;14.60;82.00;;;;;;5031996;28;20017;-71
2021/11/12 16:25:32;;;;;;;31.85;20.70;;;14.50;82.50;;;;;;5032991;28;20025;-71
2021/11/12 16:28:02;;;;;;;30.33;21.15;;;14.50;82.60;;;;;;5032960;28;20025;-71
2021/11/12 16:30:36;;;;;;;27.05;20.63;;;14.50;82.80;;;;;;5033100;28;20033;-70
2021/11/12 16:33:04;;;;;;;28.83;20.55;;;14.40;82.80;;;;;;5047302;28;20021;-71
2021/11/12 16:35:35;;;;;;;30.83;21.80;;;14.40;83.10;;;;;;5032512;28;20052;-71
2021/11/12 16:38:17;;;;;;;31.33;20.42;;;14.40;83.10;;;;;;5032615;28;20386;-71
2021/11/12 16:40:47;;;;;;;28.42;19.02;;;14.40;83.10;;;;;;5032598;28;20014;-71
2021/11/12 16:43:20;;;;;;;29.88;18.90;;;14.30;83.10;;;;;;5050515;28;20029;-71
2021/11/12 16:46:07;;;;;;;34.40;19.95;;;14.30;83.10;;;;;;5036930;28;20053;-71
2021/11/12 16:51:48;;;;;;;33.97;22.80;;;14.30;83.00;;;;;;5036924;28;20099;-71
2021/11/12 16:57:05;;;;;;;33.10;21.52;;;14.30;82.80;;;;;;5036208;28;20030;-71
2021/11/12 16:59:48;;;;;;;33.10;21.48;;;14.20;82.80;;;;;;5046557;28;20074;-71
2021/11/12 17:05:01;;;;;;;37.47;22.92;;;14.10;82.60;;;;;;5056239;28;20052;-70
2021/11/12 17:20:54;;;;;;;42.90;26.27;;;13.90;83.20;;;;;;5050994;28;20076;-71
2021/11/12 17:23:51;;;;;;;37.88;22.23;;;13.90;83.20;;;;;;5055908;28;20473;-71
2021/11/12 17:47:59;;;;;;;36.65;20.80;;;13.60;83.60;;;;;;5055710;28;20386;-71
2021/11/12 17:50:36;;;;;;;35.40;20.85;;;13.60;83.40;;;;;;5055363;28;20021;-71
2021/11/12 18:04:17;;;;;;;30.52;19.90;;;13.50;83.50;;;;;;5054940;28;20047;-71
2021/11/12 18:06:36;;;;;;;29.70;18.23;;;13.50;83.10;;;;;;5052661;28;20035;-71
2021/11/12 18:12:17;;;;;;;27.55;16.60;;;13.50;82.20;;;;;;5055458;28;20471;-71
2021/11/12 21:46:17;;;;;;;34.95;22.65;;;13.40;81.90;;;;;;5055326;28;20460;-73
2021/11/12 21:48:30;;;;;;;31.67;19.88;;;13.40;81.90;;;;;;5054230;28;20033;-72
2021/11/12 21:50:59;;;;;;;29.05;19.58;;;13.40;82.00;;;;;;5055633;28;20087;-73
2021/11/12 21:53:25;;;;;;;33.92;18.95;;;13.40;81.90;;;;;;5055435;28;20041;-72
2021/11/12 21:55:52;;;;;;;28.65;17.58;;;13.40;81.70;;;;;;5055321;28;20505;-72
2021/11/12 21:58:19;;;;;;;23.88;16.13;;;13.30;81.30;;;;;;5054130;28;20025;-72
2021/11/12 22:00:46;;;;;;;20.92;14.05;;;13.30;81.20;;;;;;5055120;28;20021;-72
2021/11/12 22:03:16;;;;;;;21.88;15.02;;;13.30;81.00;;;;;;5055713;28;20480;-72
2021/11/12 22:05:42;;;;;;;24.33;15.32;;;13.30;80.80;;;;;;5055240;28;20078;-72
2021/11/12 22:08:08;;;;;;;28.15;15.00;;;13.30;80.60;;;;;;5055218;28;20033;-74
2021/11/12 22:10:34;;;;;;;22.95;15.20;;;13.30;80.80;;;;;;5054850;28;20107;-71
2021/11/12 22:13:00;;;;;;;20.10;14.10;;;13.30;80.70;;;;;;5052339;28;20503;-72
2021/11/12 22:15:26;;;;;;;21.42;15.20;;;13.30;80.60;;;;;;5052456;28;20438;-72
2021/11/12 22:17:52;;;;;;;23.10;14.77;;;13.30;80.70;;;;;;5054906;28;20056;-73
2021/11/12 22:20:18;;;;;;;23.27;15.82;;;13.40;80.80;;;;;;5055149;28;20489;-72
2021/11/12 22:22:45;;;;;;;26.00;17.98;;;13.40;80.90;;;;;;5055232;28;20029;-72
2021/11/12 22:25:12;;;;;;;29.40;18.95;;;13.30;81.00;;;;;;5055218;28;20070;-72
2021/11/12 22:27:38;;;;;;;29.00;17.73;;;13.30;81.30;;;;;;5054953;28;20028;-72
2021/11/12 22:30:06;;;;;;;38.03;19.27;;;13.40;81.60;;;;;;5054773;28;20029;-72
2021/11/12 22:32:32;;;;;;;30.88;19.95;;;13.30;81.70;;;;;;5054921;28;20355;-72
2021/11/12 22:34:57;;;;;;;30.98;19.85;;;13.30;81.80;;;;;;5054861;28;20086;-72
2021/11/12 22:37:23;;;;;;;28.67;19.40;;;13.30;81.80;;;;;;5054940;28;20477;-72
2021/11/12 22:39:49;;;;;;;25.70;17.35;;;13.30;81.80;;;;;;5054118;28;20025;-71
2021/11/12 22:42:16;;;;;;;26.20;16.10;;;13.30;81.60;;;;;;5053815;28;20028;-71
2021/11/12 22:44:42;;;;;;;29.48;17.10;;;13.30;81.40;;;;;;5053399;28;20365;-71
2021/11/12 22:47:08;;;;;;;32.63;17.20;;;13.30;81.10;;;;;;5052967;28;20040;-72
2021/11/12 22:49:34;;;;;;;23.63;14.88;;;13.30;81.00;;;;;;5053179;28;20393;-71
2021/11/12 22:52:00;;;;;;;17.67;13.23;;;13.30;80.90;;;;;;5054178;28;20033;-71
2021/11/12 22:54:25;;;;;;;18.63;11.15;;;13.30;81.10;;;;;;5053665;28;20036;-71
2021/11/12 22:56:52;;;;;;;16.33;10.63;;;13.30;80.20;;;;;;5054226;28;20376;-72
2021/11/12 22:59:17;;;;;;;18.20;10.60;;;13.30;79.60;;;;;;5054079;28;20370;-71
2021/11/12 23:01:43;;;;;;;14.05;10.30;;;13.30;79.20;;;;;;5054319;28;20115;-71
2021/11/12 23:04:09;;;;;;;14.93;9.90;;;13.20;79.10;;;;;;5053887;28;20053;-70